Time;durP1;ratioP1;P1;durP2;ratioP2;P2;SDS_P1;SDS_P2;PMS_P1;PMS_P2;Temp;Humidity;BMP_temperature;BMP_pressure;BME280_temperature;BME280_humidity;BME280_pressure;Samples;Min_cycle;Max_cycle;Signal;HPM_P1;HPM_P2
2022/07/03 00:01:26;;;;;;;3.53;2.15;;;18.80;99.90;;;;;;5033131;28;20041;-74
2022/07/03 00:03:52;;;;;;;8.10;2.70;;;18.80;99.90;;;;;;5016969;28;20088;-73
2022/07/03 00:06:18;;;;;;;3.55;2.53;;;18.80;99.90;;;;;;5033359;28;20495;-74
2022/07/03 00:08:44;;;;;;;4.15;2.40;;;18.70;99.90;;;;;;5033180;28;20033;-74
2022/07/03 00:11:09;;;;;;;6.63;2.58;;;18.70;99.90;;;;;;5033133;28;20137;-74
2022/07/03 00:13:35;;;;;;;5.35;3.08;;;18.70;99.90;;;;;;5031756;28;20538;-72
2022/07/03 00:16:01;;;;;;;4.53;2.40;;;18.70;99.90;;;;;;5033228;28;20124;-73
2022/07/03 00:18:27;;;;;;;3.85;2.20;;;18.60;99.90;;;;;;5016555;28;20037;-73
2022/07/03 00:21:04;;;;;;;3.45;1.98;;;18.60;99.90;;;;;;5032764;28;20060;-73
2022/07/03 00:23:37;;;;;;;5.25;2.30;;;18.60;99.90;;;;;;5032914;28;20042;-73
2022/07/03 00:26:04;;;;;;;5.28;2.13;;;18.50;99.90;;;;;;5032872;28;20052;-73
2022/07/03 00:28:31;;;;;;;5.40;2.35;;;18.60;99.90;;;;;;5033113;28;20099;-74
2022/07/03 00:30:57;;;;;;;5.85;2.83;;;18.60;99.90;;;;;;5032522;28;20041;-73
2022/07/03 00:33:26;;;;;;;4.70;3.00;;;18.50;99.90;;;;;;5032687;28;20036;-74
2022/07/03 00:35:54;;;;;;;4.32;2.88;;;18.50;99.90;;;;;;5032689;28;20045;-73
2022/07/03 00:38:21;;;;;;;4.85;3.00;;;18.50;99.90;;;;;;5032935;28;20048;-73
2022/07/03 00:40:47;;;;;;;6.15;3.50;;;18.60;99.90;;;;;;5032575;28;20083;-74
2022/07/03 00:43:15;;;;;;;4.90;3.25;;;18.40;99.90;;;;;;5032867;28;20080;-74
2022/07/03 00:45:46;;;;;;;5.05;3.63;;;18.50;99.90;;;;;;5058419;22;20041;-70
2022/07/03 00:48:13;;;;;;;5.45;3.40;;;18.50;99.90;;;;;;5035886;28;20517;-70
2022/07/03 00:50:48;;;;;;;4.95;2.90;;;18.50;99.90;;;;;;5053124;28;20041;-70
2022/07/03 00:53:18;;;;;;;6.72;3.80;;;18.40;99.90;;;;;;5053368;28;20077;-70
2022/07/03 00:55:47;;;;;;;4.22;3.53;;;18.40;99.90;;;;;;5053691;28;20065;-70
2022/07/03 00:58:16;;;;;;;6.72;3.42;;;18.40;99.90;;;;;;5052347;28;20052;-72
2022/07/03 01:00:44;;;;;;;7.43;4.03;;;18.40;99.90;;;;;;5051987;28;20052;-71
2022/07/03 01:03:16;;;;;;;6.13;3.63;;;18.40;99.90;;;;;;5052269;28;20099;-72
2022/07/03 01:05:53;;;;;;;5.73;3.77;;;18.30;99.90;;;;;;5053672;28;20127;-71
2022/07/03 01:08:49;;;;;;;4.95;3.95;;;18.30;99.90;;;;;;5053578;28;20364;-70
2022/07/03 01:11:33;;;;;;;4.32;3.28;;;18.30;99.90;;;;;;5053047;28;20048;-70
2022/07/03 01:14:27;;;;;;;4.70;3.83;;;18.30;99.90;;;;;;5053461;28;20087;-69
2022/07/03 01:17:02;;;;;;;7.07;3.72;;;18.30;99.90;;;;;;5051951;28;20139;-69
2022/07/03 01:19:45;;;;;;;6.55;3.90;;;18.30;99.90;;;;;;5052880;28;20045;-69
2022/07/03 01:22:32;;;;;;;4.97;3.65;;;18.30;99.90;;;;;;5053369;28;20047;-69
2022/07/03 01:25:24;;;;;;;7.05;4.10;;;18.30;99.90;;;;;;5052749;28;20068;-69
2022/07/03 01:28:14;;;;;;;6.97;4.10;;;18.30;99.90;;;;;;5053117;28;20059;-70
2022/07/03 01:30:53;;;;;;;5.72;3.60;;;18.20;99.90;;;;;;5052751;28;20123;-69
2022/07/03 01:33:20;;;;;;;4.60;3.72;;;18.10;99.90;;;;;;5034953;28;20124;-69
2022/07/03 01:36:00;;;;;;;5.85;4.03;;;18.20;99.90;;;;;;5052835;28;20029;-69
2022/07/03 01:38:30;;;;;;;4.97;3.50;;;18.10;99.90;;;;;;5051546;28;20075;-69
2022/07/03 01:40:57;;;;;;;6.07;3.70;;;18.10;99.90;;;;;;5052560;28;20098;-70
2022/07/03 01:43:29;;;;;;;4.85;3.80;;;18.00;99.90;;;;;;5051678;28;20048;-70
2022/07/03 01:45:57;;;;;;;4.50;3.03;;;18.00;99.90;;;;;;5052606;28;20475;-69
2022/07/03 01:48:24;;;;;;;5.70;3.33;;;18.00;99.90;;;;;;5051360;28;20414;-69
2022/07/03 01:50:50;;;;;;;5.70;4.35;;;17.90;99.90;;;;;;5052202;28;20041;-70
2022/07/03 01:53:17;;;;;;;5.07;3.85;;;17.90;99.90;;;;;;5052438;28;20041;-69
2022/07/03 01:55:43;;;;;;;6.38;4.18;;;17.80;99.90;;;;;;5051345;28;20047;-69
2022/07/03 01:58:10;;;;;;;5.78;3.90;;;17.80;99.90;;;;;;5052399;28;20528;-69
2022/07/03 02:00:46;;;;;;;4.97;3.95;;;17.80;99.90;;;;;;5052183;28;20087;-69
2022/07/03 02:03:17;;;;;;;5.47;3.78;;;17.80;99.90;;;;;;5051099;28;20045;-69
2022/07/03 02:05:45;;;;;;;4.97;3.40;;;17.80;99.90;;;;;;5051257;28;20462;-69
2022/07/03 02:08:29;;;;;;;7.25;3.45;;;17.60;99.90;;;;;;5051275;28;20498;-69
2022/07/03 02:11:10;;;;;;;4.68;3.63;;;17.60;99.90;;;;;;5051954;28;20404;-69
2022/07/03 02:13:42;;;;;;;8.50;4.18;;;17.60;99.90;;;;;;5052188;28;20076;-69
2022/07/03 02:16:12;;;;;;;3.70;3.30;;;17.60;99.90;;;;;;5052035;28;20068;-69
2022/07/03 02:18:38;;;;;;;6.55;3.78;;;17.50;99.90;;;;;;5050900;28;20041;-69
2022/07/03 02:21:12;;;;;;;4.45;3.85;;;17.40;99.90;;;;;;5051928;28;20036;-69
2022/07/03 02:24:05;;;;;;;7.60;4.30;;;17.40;99.90;;;;;;5052140;28;20048;-69
2022/07/03 02:26:38;;;;;;;6.33;4.77;;;17.40;99.90;;;;;;5045374;28;20095;-70
2022/07/03 02:29:15;;;;;;;4.93;3.63;;;17.40;99.90;;;;;;5052121;28;20040;-70
2022/07/03 02:31:45;;;;;;;5.55;4.00;;;17.40;99.90;;;;;;5051959;28;20056;-69
2022/07/03 02:34:16;;;;;;;9.05;4.38;;;17.30;99.90;;;;;;5050579;28;20091;-69
2022/07/03 02:36:50;;;;;;;5.55;4.97;;;17.30;99.90;;;;;;5051072;28;20068;-70
2022/07/03 02:39:37;;;;;;;6.72;4.65;;;17.20;99.90;;;;;;5050335;28;20064;-69
2022/07/03 02:42:07;;;;;;;5.40;4.70;;;17.20;99.90;;;;;;5051972;28;20041;-70
2022/07/03 02:44:46;;;;;;;7.63;4.88;;;17.30;99.90;;;;;;5051525;28;20505;-69
2022/07/03 02:47:33;;;;;;;5.90;5.30;;;17.20;99.90;;;;;;5051600;28;20045;-69
2022/07/03 02:50:15;;;;;;;4.10;3.45;;;17.10;99.90;;;;;;5051638;28;20041;-69
2022/07/03 02:52:44;;;;;;;4.43;3.83;;;17.00;99.90;;;;;;5050376;28;20652;-70
2022/07/03 02:55:35;;;;;;;7.07;4.32;;;16.90;99.90;;;;;;5051534;28;20422;-69
2022/07/03 02:58:15;;;;;;;6.72;4.60;;;16.90;99.90;;;;;;5050660;28;20107;-69
2022/07/03 03:00:50;;;;;;;7.38;4.55;;;16.90;99.90;;;;;;5049951;28;20037;-69
2022/07/03 03:03:21;;;;;;;5.10;4.05;;;16.80;99.90;;;;;;5051539;28;20537;-70
2022/07/03 03:05:48;;;;;;;4.72;3.90;;;16.80;99.90;;;;;;5051426;28;20041;-69
2022/07/03 03:08:41;;;;;;;5.03;4.53;;;16.80;99.90;;;;;;5050225;28;20052;-69
2022/07/03 03:11:11;;;;;;;7.25;5.15;;;16.80;99.90;;;;;;5051413;28;20041;-69
2022/07/03 03:13:37;;;;;;;5.82;4.93;;;16.70;99.90;;;;;;5050087;28;20041;-70
2022/07/03 03:16:07;;;;;;;7.45;6.50;;;16.60;99.90;;;;;;5051311;28;20048;-69
2022/07/03 03:18:38;;;;;;;8.05;7.10;;;16.40;99.90;;;;;;5051254;28;20036;-69
2022/07/03 03:21:08;;;;;;;8.10;6.03;;;16.40;99.90;;;;;;5050109;28;20433;-69
2022/07/03 03:23:51;;;;;;;7.43;6.47;;;16.40;99.90;;;;;;5051476;28;20076;-69
2022/07/03 03:26:22;;;;;;;8.38;6.88;;;16.30;99.90;;;;;;5050040;28;20510;-69
2022/07/03 03:28:49;;;;;;;7.90;6.80;;;16.30;99.90;;;;;;5050301;28;20118;-69
2022/07/03 03:31:15;;;;;;;7.85;6.68;;;16.40;99.90;;;;;;5049668;28;20048;-69
2022/07/03 03:33:43;;;;;;;8.82;6.90;;;16.40;99.90;;;;;;5051371;28;20045;-69
2022/07/03 03:36:11;;;;;;;9.35;6.50;;;16.40;99.90;;;;;;5051208;28;20041;-69
2022/07/03 03:38:37;;;;;;;8.27;6.72;;;16.40;99.90;;;;;;5049915;28;20120;-69
2022/07/03 03:41:04;;;;;;;10.30;6.57;;;16.40;99.90;;;;;;5033267;28;20037;-70
2022/07/03 03:43:31;;;;;;;6.53;5.93;;;16.40;99.90;;;;;;5051045;28;20572;-69
2022/07/03 03:45:57;;;;;;;6.75;5.90;;;16.40;99.90;;;;;;5050923;28;20041;-70
2022/07/03 03:48:23;;;;;;;6.97;5.57;;;16.40;99.90;;;;;;5051367;28;20052;-69
2022/07/03 03:50:49;;;;;;;7.38;5.38;;;16.30;99.90;;;;;;5053483;28;20041;-69
2022/07/03 03:53:17;;;;;;;7.97;5.63;;;16.50;99.90;;;;;;5053469;28;20498;-69
2022/07/03 03:56:04;;;;;;;8.73;6.40;;;16.40;99.90;;;;;;5053376;28;20200;-70
2022/07/03 03:58:31;;;;;;;8.27;5.32;;;16.40;99.90;;;;;;5053334;28;20040;-69
2022/07/03 04:00:58;;;;;;;5.03;4.25;;;16.50;99.90;;;;;;5053052;28;20534;-69
2022/07/03 04:03:25;;;;;;;6.20;5.03;;;16.50;99.90;;;;;;5053348;28;20045;-69
2022/07/03 04:05:51;;;;;;;6.05;5.45;;;16.60;99.90;;;;;;5054509;28;20044;-69
2022/07/03 04:08:17;;;;;;;6.70;4.85;;;16.60;99.90;;;;;;5054466;28;20398;-69
2022/07/03 04:10:43;;;;;;;6.05;4.65;;;16.70;99.90;;;;;;5054157;28;20498;-69
2022/07/03 04:13:08;;;;;;;5.90;4.88;;;16.60;99.90;;;;;;5054442;28;20040;-69
2022/07/03 04:15:34;;;;;;;7.28;5.32;;;16.60;99.90;;;;;;5053043;28;20116;-69
2022/07/03 04:18:00;;;;;;;6.90;4.95;;;16.70;99.90;;;;;;5054285;28;20044;-69
2022/07/03 04:20:25;;;;;;;7.07;4.53;;;16.70;99.90;;;;;;5054028;28;20083;-69
2022/07/03 04:22:51;;;;;;;6.57;5.35;;;16.70;99.90;;;;;;5054227;28;20087;-70
2022/07/03 04:25:17;;;;;;;5.55;4.90;;;16.70;99.90;;;;;;5054069;28;20051;-69
2022/07/03 04:27:43;;;;;;;5.90;4.88;;;16.80;99.90;;;;;;5052943;28;20045;-69
2022/07/03 04:30:10;;;;;;;4.53;4.03;;;16.70;99.90;;;;;;5052539;28;20037;-69
2022/07/03 04:32:37;;;;;;;7.20;4.57;;;16.70;99.90;;;;;;5052752;28;20041;-70
2022/07/03 04:35:03;;;;;;;6.60;4.38;;;16.70;99.90;;;;;;5053902;28;20526;-69
2022/07/03 04:37:28;;;;;;;5.15;4.65;;;16.70;99.90;;;;;;5052764;28;20032;-69
2022/07/03 04:39:54;;;;;;;5.60;5.05;;;16.60;99.90;;;;;;5053602;28;20032;-69
2022/07/03 04:42:19;;;;;;;5.65;5.00;;;16.60;99.90;;;;;;5054064;28;20585;-70
2022/07/03 04:44:45;;;;;;;6.78;5.45;;;16.70;99.90;;;;;;5052399;28;20045;-69
2022/07/03 04:47:10;;;;;;;6.05;4.88;;;16.70;99.90;;;;;;5053865;28;20044;-69
2022/07/03 04:49:36;;;;;;;8.65;5.47;;;16.80;99.90;;;;;;5053505;28;20047;-70
2022/07/03 04:52:01;;;;;;;6.10;4.88;;;16.80;99.90;;;;;;5052338;28;20124;-69
2022/07/03 04:54:27;;;;;;;5.85;5.25;;;16.90;99.90;;;;;;5052276;28;20425;-69
2022/07/03 04:56:53;;;;;;;5.95;5.22;;;17.00;99.90;;;;;;5053792;28;20041;-69
2022/07/03 04:59:18;;;;;;;7.15;4.93;;;17.10;99.90;;;;;;5051393;28;20041;-70
2022/07/03 05:01:44;;;;;;;7.85;4.90;;;17.30;99.90;;;;;;5053592;28;20040;-69
2022/07/03 05:04:09;;;;;;;4.85;4.35;;;17.50;99.90;;;;;;5052182;28;20406;-69
2022/07/03 05:06:35;;;;;;;7.95;5.38;;;17.50;99.90;;;;;;5053384;28;20037;-70
2022/07/03 05:09:00;;;;;;;7.13;4.40;;;17.50;99.90;;;;;;5052023;28;20090;-70
2022/07/03 05:11:26;;;;;;;4.35;3.92;;;17.70;99.90;;;;;;5051777;28;20091;-70
2022/07/03 05:13:52;;;;;;;4.72;4.05;;;17.90;99.90;;;;;;5053326;28;20127;-70
2022/07/03 05:16:17;;;;;;;4.35;3.95;;;17.80;99.90;;;;;;5051931;28;20041;-69
2022/07/03 05:18:43;;;;;;;5.57;3.95;;;17.90;99.90;;;;;;5052127;28;20040;-70
2022/07/03 05:21:08;;;;;;;4.00;3.50;;;18.00;99.90;;;;;;5052800;28;20040;-69
2022/07/03 05:23:34;;;;;;;4.15;3.25;;;18.30;99.90;;;;;;5051698;28;20045;-69
2022/07/03 05:25:59;;;;;;;5.20;4.43;;;18.60;99.90;;;;;;5051640;28;20064;-70
2022/07/03 05:28:25;;;;;;;5.25;3.72;;;19.00;99.90;;;;;;5053010;28;20041;-70
2022/07/03 05:30:51;;;;;;;7.28;4.30;;;19.20;99.90;;;;;;5052657;28;20082;-70
2022/07/03 05:33:16;;;;;;;4.20;3.40;;;19.40;99.90;;;;;;5052801;28;20044;-70
2022/07/03 05:35:42;;;;;;;4.80;3.63;;;19.80;99.90;;;;;;5035139;28;20486;-70
2022/07/03 05:38:07;;;;;;;4.05;3.65;;;20.20;99.90;;;;;;5052668;28;20494;-70
2022/07/03 05:40:33;;;;;;;7.15;3.72;;;20.50;99.90;;;;;;5052626;28;20048;-70
2022/07/03 05:42:59;;;;;;;4.63;2.95;;;20.70;99.90;;;;;;5052636;28;20456;-70
2022/07/03 05:45:24;;;;;;;3.13;2.83;;;20.50;99.90;;;;;;5051276;28;20115;-70
2022/07/03 05:47:50;;;;;;;4.90;3.25;;;20.50;99.90;;;;;;5051325;28;20033;-72
2022/07/03 05:50:15;;;;;;;4.55;3.22;;;20.50;99.90;;;;;;5050979;28;20410;-72
2022/07/03 05:52:41;;;;;;;3.80;3.03;;;20.60;99.90;;;;;;5052348;28;20045;-72
2022/07/03 05:55:07;;;;;;;5.03;2.97;;;20.60;99.90;;;;;;5051191;28;20033;-72
2022/07/03 05:57:33;;;;;;;5.65;3.08;;;20.70;99.90;;;;;;5052637;28;20165;-72
2022/07/03 05:59:58;;;;;;;5.10;3.47;;;20.90;99.90;;;;;;5052228;28;20688;-71
2022/07/03 06:02:24;;;;;;;3.50;3.13;;;21.10;99.90;;;;;;5052439;28;20037;-71
2022/07/03 06:04:49;;;;;;;5.68;3.40;;;21.30;99.90;;;;;;5052157;28;20112;-71
2022/07/03 06:07:16;;;;;;;7.57;3.08;;;21.50;99.90;;;;;;5050769;28;20045;-71
2022/07/03 06:09:43;;;;;;;4.78;2.67;;;21.50;99.90;;;;;;5052090;28;20182;-71
2022/07/03 06:12:09;;;;;;;2.40;2.20;;;21.20;99.90;;;;;;5052223;28;20116;-71
2022/07/03 06:14:35;;;;;;;4.63;1.85;;;21.00;99.90;;;;;;5052013;28;20597;-71
2022/07/03 06:17:00;;;;;;;4.18;2.35;;;20.70;99.90;;;;;;5052107;28;20067;-71
2022/07/03 06:19:26;;;;;;;7.28;2.20;;;20.50;99.90;;;;;;5051750;28;20033;-71
2022/07/03 06:21:52;;;;;;;5.05;1.90;;;20.40;99.90;;;;;;5051935;28;20406;-71
2022/07/03 06:24:17;;;;;;;3.00;1.80;;;20.40;99.90;;;;;;5051833;28;20041;-71
2022/07/03 06:26:43;;;;;;;5.00;2.08;;;20.40;99.90;;;;;;5051823;28;20037;-71
2022/07/03 06:29:08;;;;;;;3.45;1.75;;;20.50;99.90;;;;;;5050548;28;20124;-71
2022/07/03 06:31:34;;;;;;;4.95;2.20;;;20.50;99.90;;;;;;5051666;28;20371;-71
2022/07/03 06:33:59;;;;;;;2.38;1.75;;;20.80;99.90;;;;;;5051775;28;20111;-71
2022/07/03 06:36:25;;;;;;;2.28;1.60;;;21.10;99.90;;;;;;5050768;28;20441;-72
2022/07/03 06:38:51;;;;;;;2.60;1.30;;;21.40;99.90;;;;;;5051950;28;20051;-72
2022/07/03 06:41:16;;;;;;;6.47;1.52;;;21.50;99.90;;;;;;5051607;28;20037;-71
2022/07/03 06:43:42;;;;;;;3.92;1.50;;;21.90;99.90;;;;;;5050392;28;20498;-72
2022/07/03 06:46:08;;;;;;;4.72;1.45;;;21.80;99.90;;;;;;5062542;22;20136;-80
2022/07/03 06:48:33;;;;;;;3.85;1.63;;;21.50;99.60;;;;;;5036460;28;20044;-80
2022/07/03 06:50:59;;;;;;;5.60;1.27;;;21.60;99.90;;;;;;5036531;28;20052;-80
2022/07/03 06:53:24;;;;;;;4.57;1.92;;;21.80;99.80;;;;;;5037504;28;20046;-81
2022/07/03 06:55:50;;;;;;;3.15;1.30;;;21.90;99.10;;;;;;5054359;28;20072;-82
2022/07/03 06:58:15;;;;;;;3.85;1.38;;;21.80;98.60;;;;;;5033843;28;20092;-80
2022/07/03 07:00:41;;;;;;;3.47;1.35;;;21.80;98.40;;;;;;5034054;28;20462;-79
2022/07/03 07:03:07;;;;;;;3.33;1.48;;;21.70;98.20;;;;;;5028144;28;20037;-79
2022/07/03 07:05:33;;;;;;;4.25;1.40;;;21.60;98.50;;;;;;5021207;28;20458;-80
2022/07/03 07:07:58;;;;;;;3.65;1.40;;;21.50;98.50;;;;;;5021557;28;20124;-80
2022/07/03 07:10:24;;;;;;;5.53;2.17;;;21.50;98.80;;;;;;5027550;28;20041;-79
2022/07/03 07:12:49;;;;;;;3.42;1.40;;;21.40;98.70;;;;;;5035048;28;20045;-80
2022/07/03 07:15:15;;;;;;;3.20;1.23;;;21.30;98.80;;;;;;5017253;28;20069;-79
2022/07/03 07:17:40;;;;;;;2.50;1.10;;;21.10;99.60;;;;;;5039564;28;20037;-80
2022/07/03 07:20:07;;;;;;;5.00;1.30;;;21.00;99.40;;;;;;5036280;28;20077;-80
2022/07/03 07:22:33;;;;;;;4.20;1.55;;;20.80;99.70;;;;;;5037195;28;20052;-79
2022/07/03 07:24:58;;;;;;;3.10;1.30;;;20.70;99.70;;;;;;5023251;28;20041;-79
2022/07/03 07:27:24;;;;;;;4.45;1.75;;;20.50;99.80;;;;;;5039404;28;20096;-78
2022/07/03 07:29:50;;;;;;;3.40;1.08;;;21.00;99.80;;;;;;5023166;28;20042;-81
2022/07/03 07:32:15;;;;;;;5.28;1.60;;;21.30;98.90;;;;;;5040046;28;20042;-79
2022/07/03 07:34:41;;;;;;;4.80;1.10;;;21.30;98.70;;;;;;5035387;28;20064;-79
2022/07/03 07:37:06;;;;;;;2.47;0.98;;;21.30;99.30;;;;;;5034290;28;20487;-79
2022/07/03 07:39:32;;;;;;;3.78;1.10;;;21.20;98.70;;;;;;5034960;28;20511;-78
2022/07/03 07:41:58;;;;;;;3.58;1.23;;;21.10;98.50;;;;;;5034134;28;20059;-79
2022/07/03 07:44:23;;;;;;;4.05;1.10;;;21.20;98.90;;;;;;5034775;28;20051;-80
2022/07/03 07:46:49;;;;;;;3.30;1.13;;;21.70;99.10;;;;;;5036490;28;20069;-80
2022/07/03 07:49:15;;;;;;;3.55;1.40;;;22.00;98.20;;;;;;5036375;28;20071;-75
2022/07/03 07:51:40;;;;;;;1.77;0.90;;;22.40;97.30;;;;;;5034737;28;20107;-80
2022/07/03 07:54:06;;;;;;;2.72;1.10;;;22.60;97.30;;;;;;5037701;28;20041;-79
2022/07/03 07:56:32;;;;;;;3.72;1.08;;;22.60;97.20;;;;;;5037165;28;20036;-80
2022/07/03 07:58:57;;;;;;;3.95;1.17;;;22.40;96.90;;;;;;5035494;28;20033;-82
2022/07/03 08:06:51;;;;;;;3.33;1.20;;;22.60;97.60;;;;;;5039601;28;20056;-80
2022/07/03 08:09:17;;;;;;;4.65;1.10;;;22.90;96.50;;;;;;5019953;28;20029;-79
2022/07/03 08:11:42;;;;;;;3.33;1.10;;;23.40;96.10;;;;;;5038642;28;20037;-80
2022/07/03 08:14:09;;;;;;;4.20;1.38;;;23.60;95.50;;;;;;5038866;28;20060;-81
2022/07/03 08:16:36;;;;;;;3.38;0.93;;;23.50;94.30;;;;;;5039614;28;20046;-81
2022/07/03 08:19:01;;;;;;;4.68;1.38;;;23.60;94.80;;;;;;5037540;28;20065;-82
2022/07/03 08:21:27;;;;;;;3.72;1.13;;;23.90;94.60;;;;;;5040038;28;20033;-81
2022/07/03 08:23:53;;;;;;;2.13;0.88;;;24.20;94.10;;;;;;5039070;28;20129;-81
2022/07/03 08:26:18;;;;;;;3.03;1.02;;;24.50;93.80;;;;;;5025428;28;20037;-80
2022/07/03 08:28:44;;;;;;;2.17;0.80;;;24.80;93.00;;;;;;5041898;28;20048;-81
2022/07/03 08:31:10;;;;;;;2.22;0.80;;;25.10;92.40;;;;;;5041865;28;20052;-82
2022/07/03 08:33:35;;;;;;;2.20;1.05;;;25.10;91.10;;;;;;5042474;28;20048;-82
2022/07/03 08:36:01;;;;;;;1.75;0.82;;;25.30;90.70;;;;;;5039894;28;20037;-83
2022/07/03 08:38:33;;;;;;;2.17;0.70;;;25.40;88.60;;;;;;5039896;28;20038;-81
2022/07/03 08:41:00;;;;;;;2.77;0.80;;;25.60;88.30;;;;;;5023411;28;20042;-81
2022/07/03 08:43:25;;;;;;;2.50;0.70;;;25.50;85.70;;;;;;5039458;28;20037;-81
2022/07/03 08:45:52;;;;;;;3.72;1.00;;;25.70;85.30;;;;;;5023813;28;20060;-81
2022/07/03 08:48:20;;;;;;;1.75;0.85;;;25.80;86.10;;;;;;5042075;28;20045;-81
2022/07/03 08:50:46;;;;;;;2.25;0.55;;;25.00;78.70;;;;;;5040257;28;20041;-81
2022/07/03 08:53:12;;;;;;;2.05;0.55;;;24.40;77.80;;;;;;5040208;28;20041;-82
2022/07/03 08:55:38;;;;;;;5.15;1.17;;;24.00;79.50;;;;;;5041120;28;20116;-82
2022/07/03 08:58:05;;;;;;;1.20;0.50;;;23.70;81.40;;;;;;5026482;28;20410;-80
2022/07/03 09:00:32;;;;;;;3.17;0.95;;;24.10;82.60;;;;;;5039764;28;20033;-82
2022/07/03 09:02:59;;;;;;;2.25;0.60;;;24.20;83.60;;;;;;5040362;28;20037;-82
2022/07/03 09:05:25;;;;;;;2.45;0.65;;;24.70;83.20;;;;;;5022675;28;20041;-80
2022/07/03 09:07:52;;;;;;;1.02;0.50;;;24.90;80.90;;;;;;5030160;28;20045;-81
2022/07/03 09:10:19;;;;;;;2.92;0.80;;;24.80;80.10;;;;;;5039796;28;20503;-80
2022/07/03 09:12:46;;;;;;;2.15;0.80;;;24.50;79.80;;;;;;5040409;28;20041;-81
2022/07/03 09:15:12;;;;;;;1.48;0.68;;;24.20;79.90;;;;;;5037601;28;20038;-80
2022/07/03 09:17:38;;;;;;;4.18;0.80;;;24.00;79.80;;;;;;5034532;28;20041;-79
2022/07/03 09:20:06;;;;;;;2.35;0.90;;;24.20;81.40;;;;;;5035514;28;20099;-78
2022/07/03 09:22:34;;;;;;;4.30;0.93;;;24.00;81.80;;;;;;5030671;28;20042;-76
2022/07/03 09:25:08;;;;;;;1.30;0.77;;;24.10;82.30;;;;;;5033949;28;20121;-79
2022/07/03 09:27:48;;;;;;;1.05;0.70;;;23.90;81.10;;;;;;5032019;28;20038;-78
2022/07/03 09:30:13;;;;;;;3.80;0.90;;;24.00;84.80;;;;;;5031562;28;20037;-77
2022/07/03 09:32:46;;;;;;;1.63;0.60;;;24.30;83.10;;;;;;5035191;28;20457;-79
2022/07/03 09:35:22;;;;;;;;;;;24.50;82.40;;;;;;5036266;28;20072;-80
2022/07/03 09:37:57;;;;;;;2.50;0.60;;;24.70;81.10;;;;;;5034593;28;19928;-80
2022/07/03 09:40:24;;;;;;;1.17;0.60;;;25.10;72.70;;;;;;5032487;28;20041;-79
2022/07/03 09:42:58;;;;;;;1.60;0.32;;;25.20;75.20;;;;;;5033850;28;20042;-79
2022/07/03 09:45:24;;;;;;;1.25;0.40;;;25.20;71.90;;;;;;5032553;28;20064;-78
2022/07/03 09:47:49;;;;;;;2.95;0.98;;;25.20;71.70;;;;;;5033587;28;20080;-78
2022/07/03 09:50:15;;;;;;;2.60;0.60;;;25.20;70.30;;;;;;5034371;28;20084;-80
2022/07/03 09:52:46;;;;;;;0.90;0.40;;;25.60;71.90;;;;;;5033576;28;20387;-80
2022/07/03 09:55:11;;;;;;;2.08;0.40;;;25.20;70.60;;;;;;5034157;28;20084;-81
2022/07/03 09:57:38;;;;;;;1.08;0.77;;;25.40;69.50;;;;;;5037757;28;20399;-81
2022/07/03 10:00:23;;;;;;;1.88;0.40;;;25.50;70.70;;;;;;5035898;28;20045;-80
2022/07/03 10:03:09;;;;;;;2.25;0.73;;;25.40;69.70;;;;;;5032116;28;20053;-79
2022/07/03 10:05:42;;;;;;;4.88;0.70;;;25.60;66.60;;;;;;5031424;28;20044;-78
2022/07/03 10:08:13;;;;;;;1.30;0.30;;;25.70;66.20;;;;;;5032438;28;20038;-80
2022/07/03 10:10:42;;;;;;;4.75;0.63;;;25.60;66.00;;;;;;5035432;28;20438;-80
2022/07/03 10:13:08;;;;;;;1.63;0.45;;;25.60;65.10;;;;;;5034044;28;20069;-78
2022/07/03 10:15:37;;;;;;;1.58;0.55;;;25.80;65.40;;;;;;5034175;28;20075;-79
2022/07/03 10:18:05;;;;;;;2.08;0.57;;;25.80;64.70;;;;;;5032265;28;20040;-79
2022/07/03 10:20:42;;;;;;;1.38;0.40;;;25.60;63.90;;;;;;5033682;28;20434;-80
2022/07/03 10:23:09;;;;;;;2.55;0.30;;;25.60;65.00;;;;;;5035714;28;20037;-80
2022/07/03 10:25:35;;;;;;;2.38;0.80;;;25.80;66.90;;;;;;5019595;28;20096;-79
2022/07/03 10:28:01;;;;;;;1.70;0.40;;;25.70;67.10;;;;;;5025746;28;20088;-79
2022/07/03 10:30:27;;;;;;;2.03;0.70;;;25.60;67.70;;;;;;5024950;28;20041;-79
2022/07/03 10:32:55;;;;;;;4.35;1.17;;;25.40;68.80;;;;;;5018988;28;20071;-79
2022/07/03 10:35:26;;;;;;;0.82;0.38;;;25.20;67.40;;;;;;5033367;28;20045;-81
2022/07/03 10:38:01;;;;;;;1.52;0.80;;;25.00;66.80;;;;;;5037260;28;20041;-80
2022/07/03 10:46:27;;;;;;;3.45;0.57;;;24.40;66.30;;;;;;5030875;28;20053;-78
2022/07/03 10:49:12;;;;;;;0.70;0.32;;;24.40;67.60;;;;;;5030449;28;20150;-79
2022/07/03 10:51:44;;;;;;;2.67;0.50;;;24.40;66.80;;;;;;5015087;28;20044;-78
2022/07/03 10:54:25;;;;;;;1.60;0.60;;;24.60;66.20;;;;;;5031494;28;20104;-80
2022/07/03 10:57:02;;;;;;;0.90;0.47;;;24.80;70.50;;;;;;5031611;28;20038;-79
2022/07/03 10:59:44;;;;;;;1.38;0.70;;;24.80;67.00;;;;;;5032268;28;20685;-79
2022/07/03 11:02:22;;;;;;;1.25;0.68;;;24.50;66.20;;;;;;5031758;28;20408;-79
2022/07/03 11:05:03;;;;;;;3.75;0.80;;;24.70;68.60;;;;;;5031586;28;20048;-78
2022/07/03 11:07:42;;;;;;;4.55;0.90;;;24.30;69.60;;;;;;5031404;28;20395;-77
2022/07/03 11:10:10;;;;;;;3.80;0.70;;;24.20;70.00;;;;;;5030524;28;20508;-75
2022/07/03 11:13:09;;;;;;;2.08;0.55;;;24.00;69.00;;;;;;5018528;28;20084;-77
2022/07/03 11:15:41;;;;;;;1.45;0.73;;;24.10;70.70;;;;;;5032057;28;20045;-77
2022/07/03 11:18:10;;;;;;;2.22;0.80;;;24.30;72.80;;;;;;5031831;28;20072;-77
2022/07/03 11:20:58;;;;;;;0.80;0.40;;;24.40;70.10;;;;;;5030209;28;20584;-77
2022/07/03 11:23:26;;;;;;;1.77;0.35;;;24.30;71.10;;;;;;5031369;28;20041;-76
2022/07/03 11:26:09;;;;;;;1.40;0.63;;;24.50;67.90;;;;;;5029917;28;20061;-77
2022/07/03 11:28:35;;;;;;;;;;;24.70;70.10;;;;;;5031015;28;20045;-77
2022/07/03 11:31:18;;;;;;;1.30;0.32;;;24.60;65.10;;;;;;5031308;28;19923;-79
2022/07/03 11:33:46;;;;;;;2.13;0.73;;;24.70;67.10;;;;;;5031485;28;20417;-78
2022/07/03 11:36:27;;;;;;;2.03;0.70;;;24.90;67.90;;;;;;5031091;28;20042;-77
2022/07/03 11:38:55;;;;;;;2.85;0.60;;;24.80;65.00;;;;;;5032615;28;20099;-78
2022/07/03 11:41:22;;;;;;;4.35;1.00;;;24.90;66.50;;;;;;5027728;28;20033;-76
2022/07/03 11:43:53;;;;;;;2.00;0.70;;;24.90;66.40;;;;;;4996992;28;20104;-77
2022/07/03 11:46:27;;;;;;;2.70;0.60;;;25.00;68.30;;;;;;5011857;28;20515;-80
2022/07/03 11:49:08;;;;;;;2.83;0.68;;;24.80;64.80;;;;;;5011264;28;20130;-79
2022/07/03 11:51:34;;;;;;;1.38;0.65;;;24.90;65.90;;;;;;5010870;28;20099;-79
2022/07/03 11:54:01;;;;;;;3.47;0.68;;;24.80;66.00;;;;;;5011262;28;20057;-80
2022/07/03 11:56:27;;;;;;;2.15;0.88;;;24.90;67.10;;;;;;5011218;28;20053;-79
2022/07/03 11:58:56;;;;;;;2.53;0.60;;;24.90;66.60;;;;;;5011204;28;20121;-79
2022/07/03 12:01:22;;;;;;;1.65;0.68;;;25.00;67.30;;;;;;5010112;28;20108;-79
2022/07/03 12:04:03;;;;;;;2.08;0.70;;;24.90;68.50;;;;;;5010724;28;20042;-78
2022/07/03 12:06:52;;;;;;;3.22;0.75;;;24.70;68.90;;;;;;5013653;28;20087;-79
2022/07/03 12:09:26;;;;;;;2.00;0.60;;;24.60;68.80;;;;;;5032483;28;20065;-77
2022/07/03 12:11:52;;;;;;;3.38;0.70;;;24.60;67.30;;;;;;5035538;28;20049;-80
2022/07/03 12:14:32;;;;;;;0.98;0.70;;;24.90;68.50;;;;;;5033213;28;20498;-78
2022/07/03 12:16:58;;;;;;;1.00;0.60;;;24.80;67.60;;;;;;5017676;28;20048;-79
2022/07/03 12:19:23;;;;;;;24.70;15.90;;;24.40;66.90;;;;;;5034794;28;20034;-80
2022/07/03 12:21:49;;;;;;;4.50;1.33;;;24.20;68.90;;;;;;5036138;28;20390;-76
2022/07/03 12:24:14;;;;;;;6.13;1.67;;;23.90;72.20;;;;;;5035443;28;20041;-79
2022/07/03 12:26:40;;;;;;;4.22;1.05;;;23.80;73.50;;;;;;5035443;28;20041;-74
2022/07/03 12:29:12;;;;;;;5.75;1.48;;;23.60;73.40;;;;;;5033397;28;20042;-80
2022/07/03 12:31:43;;;;;;;2.55;1.10;;;23.50;74.20;;;;;;5019512;28;20564;-80
2022/07/03 12:34:10;;;;;;;3.40;1.13;;;23.40;75.70;;;;;;5036472;28;20041;-80
2022/07/03 12:36:36;;;;;;;3.90;0.98;;;23.70;77.90;;;;;;5036008;28;20041;-81
2022/07/03 12:39:02;;;;;;;5.68;1.00;;;23.80;77.50;;;;;;5035116;28;20092;-82
2022/07/03 12:41:31;;;;;;;4.93;1.10;;;23.70;78.30;;;;;;5038386;28;20049;-81
2022/07/03 12:44:00;;;;;;;3.00;1.23;;;23.50;76.40;;;;;;5038807;28;20044;-81
2022/07/03 12:46:34;;;;;;;2.45;0.95;;;23.50;77.20;;;;;;5032435;22;20137;-73
2022/07/03 12:49:07;;;;;;;6.57;1.20;;;23.50;78.10;;;;;;4977419;28;20416;-73
2022/07/03 12:51:51;;;;;;;3.05;0.88;;;23.70;77.70;;;;;;4976269;28;20100;-73
2022/07/03 12:54:33;;;;;;;4.03;1.00;;;23.80;79.30;;;;;;4977070;28;20047;-72
2022/07/03 12:59:16;;;;;;;6.35;0.90;;;24.00;76.20;;;;;;4976930;28;20035;-72
2022/07/03 13:00:11;;;;;;;2.25;0.80;;;24.00;74.20;;;;;;4974492;28;20492;-72
2022/07/03 13:02:39;;;;;;;2.35;0.85;;;23.80;75.80;;;;;;4975007;28;20035;-72
2022/07/03 13:05:24;;;;;;;3.90;1.00;;;23.70;76.30;;;;;;4957259;28;20074;-72
2022/07/03 13:07:54;;;;;;;5.85;1.50;;;23.70;80.70;;;;;;4957663;28;20088;-72
2022/07/03 13:10:22;;;;;;;3.15;1.05;;;23.70;79.00;;;;;;4957045;28;20102;-71
2022/07/03 13:12:56;;;;;;;1.80;0.90;;;23.60;80.50;;;;;;4957282;28;20074;-72